Time;durP1;ratioP1;P1;durP2;ratioP2;P2;SDS_P1;SDS_P2;PMS_P1;PMS_P2;Temp;Humidity;BMP_temperature;BMP_pressure;BME280_temperature;BME280_humidity;BME280_pressure;Samples;Min_cycle;Max_cycle;Signal;HPM_P1;HPM_P2
2022/03/27 00:00:16;;;;;;;17.23;10.53;;;7.80;72.30;;;;;;5062261;28;20209;-67
2022/03/27 00:02:42;;;;;;;20.70;12.48;;;7.80;72.60;;;;;;5052454;28;20456;-65
2022/03/27 00:05:10;;;;;;;19.80;11.98;;;7.80;72.20;;;;;;5060112;28;20259;-65
2022/03/27 00:07:35;;;;;;;18.17;11.25;;;7.80;72.30;;;;;;5064387;28;20262;-67
2022/03/27 00:10:01;;;;;;;16.63;10.57;;;7.70;72.70;;;;;;5056189;28;20185;-64
2022/03/27 00:12:27;;;;;;;20.03;12.00;;;7.70;73.00;;;;;;5062085;28;20217;-64
2022/03/27 00:14:52;;;;;;;19.85;12.55;;;7.70;74.00;;;;;;5069204;28;20192;-65
2022/03/27 00:17:18;;;;;;;14.77;10.80;;;7.70;73.70;;;;;;5070045;28;20185;-67
2022/03/27 00:19:44;;;;;;;17.97;11.80;;;7.60;73.60;;;;;;5057224;28;20211;-71
2022/03/27 00:22:09;;;;;;;17.50;9.83;;;7.70;74.10;;;;;;5065958;28;20739;-65
2022/03/27 00:24:35;;;;;;;15.50;11.43;;;8.00;74.30;;;;;;5059069;28;20278;-64
2022/03/27 00:27:01;;;;;;;18.00;11.87;;;7.50;74.80;;;;;;5054100;28;20174;-65
2022/03/27 00:29:26;;;;;;;18.37;10.30;;;7.60;75.80;;;;;;5060505;28;20265;-65
2022/03/27 00:31:53;;;;;;;19.70;10.30;;;7.60;76.30;;;;;;5056084;28;20610;-65
2022/03/27 00:34:19;;;;;;;15.10;10.80;;;7.30;76.30;;;;;;5058320;28;20354;-65
2022/03/27 00:36:45;;;;;;;21.48;10.40;;;7.50;76.70;;;;;;5062981;28;20705;-66
2022/03/27 00:39:11;;;;;;;17.48;10.20;;;7.40;76.60;;;;;;5034692;28;20185;-64
2022/03/27 00:41:37;;;;;;;17.57;9.80;;;7.40;76.70;;;;;;5059958;28;20205;-66
2022/03/27 00:44:03;;;;;;;19.97;10.47;;;7.20;77.10;;;;;;5062456;28;20445;-64
2022/03/27 00:46:29;;;;;;;16.33;10.60;;;7.10;77.10;;;;;;5033768;28;20289;-64
2022/03/27 00:48:54;;;;;;;15.17;10.27;;;7.10;77.80;;;;;;5052211;28;20272;-65
2022/03/27 00:51:20;;;;;;;15.83;10.57;;;7.70;78.90;;;;;;5054372;28;20213;-67
2022/03/27 00:53:46;;;;;;;17.60;10.73;;;7.40;78.50;;;;;;5054701;28;20671;-68
2022/03/27 00:56:14;;;;;;;15.17;10.97;;;7.40;79.00;;;;;;5064189;28;20533;-65
2022/03/27 00:58:40;;;;;;;15.60;9.40;;;7.30;79.10;;;;;;5034903;28;20212;-64
2022/03/27 01:01:33;;;;;;;13.50;9.80;;;7.20;79.30;;;;;;5061403;28;20420;-65
2022/03/27 01:03:58;;;;;;;16.45;9.60;;;7.20;79.50;;;;;;5056914;28;20570;-65
2022/03/27 01:06:39;;;;;;;15.47;10.73;;;7.50;80.30;;;;;;5055104;28;20273;-64
2022/03/27 01:11:51;;;;;;;17.92;10.25;;;7.10;80.90;;;;;;5064791;28;20216;-64
2022/03/27 01:14:24;;;;;;;14.80;10.23;;;6.80;81.00;;;;;;5051055;28;20284;-68
2022/03/27 01:17:01;;;;;;;19.83;11.25;;;6.90;81.90;;;;;;5055602;28;20182;-67
2022/03/27 01:19:28;;;;;;;15.75;10.63;;;6.90;81.90;;;;;;5058027;28;20181;-64
2022/03/27 01:21:54;;;;;;;15.70;10.98;;;6.80;82.60;;;;;;5062053;28;20210;-68
2022/03/27 01:24:19;;;;;;;14.03;9.73;;;6.80;82.90;;;;;;5053889;28;20671;-66
2022/03/27 01:26:46;;;;;;;13.87;10.20;;;6.30;82.50;;;;;;5033671;28;20205;-64
2022/03/27 01:29:11;;;;;;;15.60;10.00;;;7.00;83.50;;;;;;5058122;28;20188;-65
2022/03/27 01:31:37;;;;;;;20.60;11.07;;;6.50;82.90;;;;;;5054679;28;20322;-66
2022/03/27 01:34:04;;;;;;;16.25;9.68;;;6.50;83.60;;;;;;5061533;28;20208;-66
2022/03/27 01:36:34;;;;;;;15.95;10.52;;;6.40;83.20;;;;;;5055528;28;20259;-64
2022/03/27 01:39:02;;;;;;;12.50;9.82;;;6.50;84.00;;;;;;5065248;28;20182;-66
2022/03/27 01:41:27;;;;;;;15.18;10.52;;;6.50;84.60;;;;;;5053943;28;20224;-65
2022/03/27 01:43:53;;;;;;;14.67;10.20;;;7.20;85.70;;;;;;5049992;28;20189;-69
2022/03/27 01:46:19;;;;;;;16.30;9.47;;;6.70;85.40;;;;;;5058508;28;20205;-64
2022/03/27 01:48:46;;;;;;;18.17;11.23;;;6.50;86.00;;;;;;5058346;28;20189;-68
2022/03/27 01:51:12;;;;;;;15.30;9.02;;;6.30;85.30;;;;;;5052135;28;20189;-67
2022/03/27 01:53:39;;;;;;;16.50;9.53;;;6.50;86.60;;;;;;5057994;28;20284;-64
2022/03/27 01:56:07;;;;;;;19.98;10.90;;;6.30;86.60;;;;;;5039087;28;21240;-64
2022/03/27 01:58:36;;;;;;;13.23;9.70;;;6.50;87.10;;;;;;5055608;28;20181;-64
2022/03/27 02:01:01;;;;;;;13.65;11.10;;;5.70;87.00;;;;;;5056891;28;20207;-63
2022/03/27 02:03:28;;;;;;;17.13;10.10;;;6.30;87.40;;;;;;5057070;28;20200;-64
2022/03/27 02:05:55;;;;;;;19.00;10.85;;;6.10;88.00;;;;;;5054130;28;20272;-64
2022/03/27 02:08:22;;;;;;;15.95;9.20;;;6.20;89.00;;;;;;5049330;28;20595;-66
2022/03/27 02:10:48;;;;;;;18.13;10.20;;;6.00;88.50;;;;;;5063940;28;20181;-65
2022/03/27 02:13:15;;;;;;;18.25;9.95;;;6.10;89.70;;;;;;5045909;28;20689;-64
2022/03/27 02:15:41;;;;;;;17.63;10.07;;;6.00;90.10;;;;;;5053410;28;20662;-68
2022/03/27 02:18:10;;;;;;;15.82;10.48;;;6.10;90.10;;;;;;5059332;28;20191;-69
2022/03/27 02:20:35;;;;;;;16.70;10.63;;;6.50;90.70;;;;;;5053888;28;20187;-66
2022/03/27 02:23:01;;;;;;;18.33;10.90;;;5.50;90.20;;;;;;5068585;28;20213;-65
2022/03/27 02:25:26;;;;;;;18.60;10.20;;;5.90;90.60;;;;;;5064647;28;20188;-65
2022/03/27 02:27:52;;;;;;;15.47;10.43;;;5.60;90.90;;;;;;5053449;28;20557;-65
2022/03/27 02:30:19;;;;;;;17.23;10.47;;;5.40;91.20;;;;;;5062741;28;20210;-67
2022/03/27 02:32:46;;;;;;;16.27;10.57;;;5.60;91.50;;;;;;5057531;28;20751;-64
2022/03/27 02:35:13;;;;;;;15.18;9.90;;;5.90;91.20;;;;;;5057177;28;20189;-64
2022/03/27 02:37:38;;;;;;;17.65;11.38;;;5.70;91.70;;;;;;5049460;28;20197;-68
2022/03/27 02:40:05;;;;;;;18.10;11.30;;;5.50;91.80;;;;;;5061486;28;20184;-64
2022/03/27 02:42:30;;;;;;;15.60;9.68;;;5.80;92.10;;;;;;5061082;28;20208;-65
2022/03/27 02:44:56;;;;;;;20.07;10.47;;;5.90;91.90;;;;;;5055138;28;20199;-64
2022/03/27 02:47:22;;;;;;;18.60;11.00;;;5.30;91.90;;;;;;5062552;28;20200;-64
2022/03/27 02:49:47;;;;;;;16.20;10.47;;;5.80;92.00;;;;;;5063192;28;20246;-64
2022/03/27 02:52:13;;;;;;;20.37;10.03;;;6.00;92.30;;;;;;5071690;28;20291;-67
2022/03/27 02:54:38;;;;;;;16.70;10.53;;;5.30;92.10;;;;;;5057091;28;20189;-64
2022/03/27 02:57:04;;;;;;;15.10;10.50;;;5.70;92.40;;;;;;5060942;28;20194;-66
2022/03/27 02:59:30;;;;;;;15.50;10.47;;;5.80;92.30;;;;;;5065281;28;20242;-66
2022/03/27 03:01:55;;;;;;;17.70;10.40;;;6.00;92.60;;;;;;5057167;28;20663;-67
2022/03/27 03:04:21;;;;;;;17.20;9.90;;;5.70;92.50;;;;;;5057844;28;20199;-64
2022/03/27 03:06:47;;;;;;;14.87;9.90;;;5.80;92.70;;;;;;5064563;28;20453;-65
2022/03/27 03:09:13;;;;;;;22.45;10.00;;;5.80;92.90;;;;;;5058233;28;20207;-64
2022/03/27 03:11:39;;;;;;;18.73;11.00;;;5.80;92.90;;;;;;5054369;28;20709;-64
2022/03/27 03:14:04;;;;;;;18.03;10.13;;;5.90;93.10;;;;;;5043361;28;20288;-65
2022/03/27 03:16:31;;;;;;;14.93;9.80;;;5.70;92.60;;;;;;5067454;28;20591;-67
2022/03/27 03:18:57;;;;;;;17.15;10.02;;;5.80;93.00;;;;;;5057347;28;20199;-66
2022/03/27 03:21:23;;;;;;;22.10;10.20;;;5.70;93.00;;;;;;5055206;28;20204;-66
2022/03/27 03:23:48;;;;;;;20.10;11.20;;;5.70;93.20;;;;;;5052752;28;20189;-64
2022/03/27 03:26:14;;;;;;;17.13;9.93;;;5.40;93.20;;;;;;5053419;28;20214;-64
2022/03/27 03:28:40;;;;;;;20.90;10.77;;;4.80;93.30;;;;;;5063762;28;20188;-64
2022/03/27 03:31:06;;;;;;;20.38;11.32;;;5.40;93.80;;;;;;5056465;28;20690;-64
2022/03/27 03:33:32;;;;;;;17.83;10.97;;;4.80;94.10;;;;;;5060933;28;20216;-66
2022/03/27 03:35:57;;;;;;;19.17;10.65;;;5.50;94.40;;;;;;5066193;28;20190;-64
2022/03/27 03:38:23;;;;;;;17.63;10.90;;;5.90;94.60;;;;;;5069350;28;20191;-64
2022/03/27 03:40:48;;;;;;;17.93;12.00;;;5.60;94.50;;;;;;5061695;28;20184;-64
2022/03/27 03:43:14;;;;;;;19.90;11.33;;;5.30;94.40;;;;;;5063623;28;20603;-67
2022/03/27 03:45:40;;;;;;;14.53;10.27;;;5.00;94.20;;;;;;5054270;28;20562;-64
2022/03/27 03:48:06;;;;;;;19.77;11.67;;;5.30;94.20;;;;;;5057143;28;20189;-64
2022/03/27 03:50:38;;;;;;;18.88;11.02;;;5.40;94.00;;;;;;5061895;28;20447;-64
2022/03/27 03:53:05;;;;;;;16.60;10.13;;;5.70;94.30;;;;;;5066059;28;20609;-65
2022/03/27 03:55:31;;;;;;;17.27;11.27;;;5.80;94.40;;;;;;5062403;28;20173;-65
2022/03/27 03:57:57;;;;;;;15.90;10.18;;;5.70;94.20;;;;;;5064796;28;20197;-66
2022/03/27 04:00:23;;;;;;;17.60;11.20;;;5.50;94.50;;;;;;5056520;28;20186;-63
2022/03/27 04:02:49;;;;;;;15.63;10.48;;;5.40;94.80;;;;;;5054556;28;20552;-63
2022/03/27 04:05:15;;;;;;;18.73;10.45;;;5.60;94.70;;;;;;5061794;28;20184;-63
2022/03/27 04:07:40;;;;;;;16.30;11.20;;;5.40;94.70;;;;;;5058572;28;20204;-63
2022/03/27 04:10:06;;;;;;;20.40;10.20;;;5.30;94.60;;;;;;5060580;28;20287;-63
2022/03/27 04:12:32;;;;;;;19.65;11.80;;;5.30;94.70;;;;;;5058353;28;20466;-65
2022/03/27 04:14:58;;;;;;;18.43;10.00;;;5.40;94.90;;;;;;5055928;28;20191;-67
2022/03/27 04:17:24;;;;;;;16.25;9.80;;;4.70;94.60;;;;;;5053762;28;20184;-68
2022/03/27 04:19:49;;;;;;;18.60;11.13;;;5.30;95.20;;;;;;5057206;28;20182;-64
2022/03/27 04:22:15;;;;;;;20.27;11.43;;;5.20;95.00;;;;;;5061623;28;20204;-64
2022/03/27 04:24:41;;;;;;;16.88;11.25;;;4.70;94.90;;;;;;5041826;28;20559;-63
2022/03/27 04:27:07;;;;;;;15.10;10.23;;;5.30;95.50;;;;;;5065363;28;20180;-65
2022/03/27 04:29:32;;;;;;;14.00;9.40;;;5.30;95.40;;;;;;5056638;28;20186;-67
2022/03/27 04:31:58;;;;;;;16.40;10.47;;;5.50;95.70;;;;;;5051905;28;20233;-64
2022/03/27 04:34:24;;;;;;;15.00;10.47;;;5.40;95.80;;;;;;5060283;28;20259;-64
2022/03/27 04:36:49;;;;;;;19.87;10.33;;;5.30;95.70;;;;;;5067774;28;20176;-66
2022/03/27 04:39:15;;;;;;;16.90;11.20;;;5.30;95.40;;;;;;5056625;28;20231;-69
2022/03/27 04:41:41;;;;;;;18.33;10.93;;;5.10;95.70;;;;;;5059320;28;20200;-64
2022/03/27 04:44:07;;;;;;;20.40;11.80;;;4.30;95.70;;;;;;5057987;28;20449;-66
2022/03/27 04:46:33;;;;;;;19.17;13.13;;;4.50;96.30;;;;;;5058440;28;20190;-64
2022/03/27 04:48:58;;;;;;;20.03;10.87;;;4.80;96.30;;;;;;5051459;28;20189;-68
2022/03/27 04:51:24;;;;;;;17.93;11.23;;;4.80;96.30;;;;;;5058766;28;20461;-65
2022/03/27 04:53:50;;;;;;;17.27;10.40;;;4.90;96.20;;;;;;5062650;28;20288;-64
2022/03/27 04:56:16;;;;;;;17.63;10.80;;;4.80;96.40;;;;;;5058045;28;20199;-64
2022/03/27 04:58:42;;;;;;;16.95;11.05;;;4.80;96.70;;;;;;5067598;28;20192;-66
2022/03/27 05:01:10;;;;;;;15.38;10.45;;;4.90;96.20;;;;;;5060901;28;20184;-66
2022/03/27 05:03:35;;;;;;;18.83;10.77;;;5.00;96.90;;;;;;5059914;28;20295;-64
2022/03/27 05:06:01;;;;;;;16.30;10.53;;;4.40;96.50;;;;;;5057887;28;20342;-64
2022/03/27 05:08:27;;;;;;;15.57;10.70;;;4.40;96.20;;;;;;5052740;28;20243;-64
2022/03/27 05:10:53;;;;;;;17.00;10.50;;;5.00;96.80;;;;;;5057658;28;20187;-66
2022/03/27 05:13:19;;;;;;;17.05;10.02;;;4.80;96.90;;;;;;5060406;28;20997;-63
2022/03/27 05:15:45;;;;;;;19.40;11.25;;;4.80;97.10;;;;;;5058221;28;20182;-64
2022/03/27 05:18:11;;;;;;;21.38;9.90;;;4.60;97.30;;;;;;5058910;28;20187;-63
2022/03/27 05:20:41;;;;;;;15.53;9.83;;;4.80;97.40;;;;;;5055391;28;20181;-64
2022/03/27 05:23:08;;;;;;;17.45;11.32;;;4.70;97.40;;;;;;5048611;28;20475;-66
2022/03/27 05:25:40;;;;;;;16.13;10.15;;;4.80;97.60;;;;;;5064861;28;20196;-63
2022/03/27 05:28:07;;;;;;;18.85;10.75;;;4.70;97.60;;;;;;5052281;28;20682;-65
2022/03/27 05:30:33;;;;;;;16.83;10.02;;;4.60;97.70;;;;;;5049982;28;20296;-68
2022/03/27 05:32:58;;;;;;;16.67;10.33;;;4.80;97.80;;;;;;5054130;28;20296;-65
2022/03/27 05:35:24;;;;;;;17.70;11.10;;;4.80;97.60;;;;;;5058233;28;20182;-65
2022/03/27 05:37:51;;;;;;;14.70;10.10;;;4.70;97.40;;;;;;5058795;28;20180;-64
2022/03/27 05:40:19;;;;;;;18.95;11.50;;;4.80;97.60;;;;;;5031840;28;20189;-68
2022/03/27 05:42:46;;;;;;;15.82;10.40;;;4.80;97.60;;;;;;5057802;28;20608;-69
2022/03/27 05:45:11;;;;;;;19.20;10.40;;;4.90;97.60;;;;;;5054483;28;20778;-65
2022/03/27 05:47:37;;;;;;;15.40;10.03;;;4.20;97.20;;;;;;5052755;28;20230;-64
2022/03/27 05:50:04;;;;;;;17.03;10.57;;;5.00;97.70;;;;;;5052706;28;20445;-67
2022/03/27 05:52:30;;;;;;;17.15;10.80;;;4.70;97.50;;;;;;5051427;28;20468;-64
2022/03/27 05:54:56;;;;;;;13.82;10.60;;;4.20;97.20;;;;;;5033052;28;20248;-64
2022/03/27 05:57:22;;;;;;;15.20;10.27;;;4.70;97.60;;;;;;5060301;28;20331;-64
2022/03/27 05:59:48;;;;;;;16.37;11.03;;;4.70;97.70;;;;;;5056623;28;20190;-67
2022/03/27 06:02:14;;;;;;;16.73;11.07;;;4.80;97.70;;;;;;5067342;28;20462;-63
2022/03/27 06:04:41;;;;;;;13.77;10.30;;;4.10;97.60;;;;;;5054610;28;20450;-67
2022/03/27 06:07:08;;;;;;;18.65;11.95;;;4.40;97.90;;;;;;5060718;28;20216;-64
2022/03/27 06:09:34;;;;;;;15.60;10.40;;;5.30;98.00;;;;;;5051445;28;20282;-64
2022/03/27 06:12:00;;;;;;;17.35;9.98;;;5.10;98.20;;;;;;5066492;28;20689;-64
2022/03/27 06:14:25;;;;;;;21.00;10.87;;;5.20;97.60;;;;;;5057631;28;20246;-64
2022/03/27 06:16:51;;;;;;;19.50;11.93;;;5.60;97.50;;;;;;5053120;28;20484;-65
2022/03/27 06:19:17;;;;;;;17.63;10.40;;;5.10;97.40;;;;;;5067408;28;20245;-67
2022/03/27 06:21:44;;;;;;;16.90;11.30;;;4.80;97.70;;;;;;5053300;28;20312;-65
2022/03/27 06:24:10;;;;;;;18.95;11.77;;;4.90;97.40;;;;;;5057123;28;20188;-63
2022/03/27 06:26:36;;;;;;;17.63;12.02;;;5.20;97.50;;;;;;5063337;28;20208;-65
2022/03/27 06:29:02;;;;;;;15.60;10.77;;;5.60;97.50;;;;;;5060996;28;20653;-67
2022/03/27 06:31:27;;;;;;;16.83;11.10;;;5.70;97.20;;;;;;5061952;28;20612;-67
2022/03/27 06:33:53;;;;;;;17.90;11.90;;;6.10;97.20;;;;;;5063066;28;20459;-62
2022/03/27 06:36:19;;;;;;;20.63;11.03;;;5.20;96.30;;;;;;5067507;28;20240;-66
2022/03/27 06:38:44;;;;;;;14.80;10.97;;;6.00;96.40;;;;;;5060630;28;20182;-64
2022/03/27 06:41:10;;;;;;;18.43;10.60;;;5.90;95.50;;;;;;5062150;28;20203;-64
2022/03/27 06:43:36;;;;;;;24.93;12.10;;;6.20;96.40;;;;;;5058587;28;20332;-71
2022/03/27 06:46:02;;;;;;;17.65;11.65;;;6.60;95.60;;;;;;5064703;28;20630;-64
2022/03/27 06:48:28;;;;;;;19.92;11.40;;;6.80;95.00;;;;;;5064220;28;20253;-63
2022/03/27 06:50:53;;;;;;;19.20;11.73;;;7.00;94.00;;;;;;5060892;28;20189;-64
2022/03/27 06:53:21;;;;;;;22.73;11.60;;;7.30;93.20;;;;;;5056740;28;20216;-64
2022/03/27 06:55:49;;;;;;;19.15;11.40;;;7.90;92.20;;;;;;5073453;28;20485;-67
2022/03/27 06:58:15;;;;;;;19.88;10.88;;;8.30;91.90;;;;;;5059647;28;20639;-67
2022/03/27 07:03:25;;;;;;;17.73;11.18;;;9.00;90.10;;;;;;5060599;28;20198;-64
2022/03/27 07:05:50;;;;;;;16.10;12.03;;;9.80;87.50;;;;;;5058039;28;20188;-64
2022/03/27 07:08:17;;;;;;;17.50;12.17;;;10.60;83.60;;;;;;5070624;28;20205;-65
2022/03/27 07:10:44;;;;;;;20.55;12.38;;;11.10;79.50;;;;;;5059219;28;20178;-64
2022/03/27 07:13:12;;;;;;;20.48;11.88;;;11.90;77.10;;;;;;5067795;28;20216;-65
2022/03/27 07:15:39;;;;;;;18.60;12.60;;;14.00;72.40;;;;;;5057754;28;21179;-68
2022/03/27 07:18:05;;;;;;;14.95;11.30;;;16.20;63.60;;;;;;5066675;28;20181;-66
2022/03/27 07:20:32;;;;;;;18.73;13.68;;;16.20;60.00;;;;;;5038746;28;20178;-67
2022/03/27 07:23:00;;;;;;;15.27;13.23;;;17.60;57.40;;;;;;5049710;28;22224;-69
2022/03/27 07:25:28;;;;;;;19.70;14.35;;;19.10;53.80;;;;;;5059154;28;20194;-68
2022/03/27 07:27:54;;;;;;;16.67;12.95;;;19.20;51.60;;;;;;5042317;28;20246;-68
2022/03/27 07:30:20;;;;;;;18.10;14.77;;;21.60;49.10;;;;;;5060103;28;20325;-68
2022/03/27 07:32:46;;;;;;;22.70;14.63;;;23.30;44.70;;;;;;5056921;28;20471;-68
2022/03/27 07:35:17;;;;;;;18.03;14.50;;;24.40;42.10;;;;;;5044848;28;20571;-68
2022/03/27 07:37:45;;;;;;;18.53;13.87;;;25.30;39.70;;;;;;5043002;28;20943;-68
2022/03/27 07:40:11;;;;;;;15.63;13.83;;;25.60;37.80;;;;;;5058732;28;20445;-68
2022/03/27 07:42:47;;;;;;;19.43;14.40;;;26.10;36.90;;;;;;5055029;28;20510;-68
2022/03/27 07:45:13;;;;;;;17.40;14.80;;;26.40;35.50;;;;;;5037341;28;20456;-68
2022/03/27 07:47:39;;;;;;;19.13;14.77;;;26.80;35.20;;;;;;5056040;28;20496;-67
2022/03/27 07:50:06;;;;;;;20.10;16.93;;;26.30;33.80;;;;;;5055095;28;20957;-67
2022/03/27 07:52:33;;;;;;;20.03;15.27;;;25.90;34.80;;;;;;5053564;28;20213;-68
2022/03/27 07:54:58;;;;;;;17.13;14.40;;;25.60;35.00;;;;;;5056101;28;20532;-67
2022/03/27 07:57:25;;;;;;;18.33;16.27;;;26.30;34.80;;;;;;5059940;28;20545;-68
2022/03/27 07:59:51;;;;;;;22.77;16.13;;;26.90;33.90;;;;;;5054498;28;20179;-67
2022/03/27 08:02:18;;;;;;;20.63;17.63;;;27.40;33.60;;;;;;5059930;28;20983;-67
2022/03/27 08:04:44;;;;;;;59.63;53.30;;;25.30;35.50;;;;;;5051482;28;20300;-67
2022/03/27 08:07:10;;;;;;;21.53;17.77;;;26.00;34.80;;;;;;5056396;28;20490;-67
2022/03/27 08:09:36;;;;;;;18.90;16.30;;;26.00;34.60;;;;;;5056448;28;20449;-67
2022/03/27 08:12:02;;;;;;;20.40;16.13;;;26.60;34.50;;;;;;5062084;28;20270;-67
2022/03/27 08:14:31;;;;;;;20.47;16.97;;;27.10;33.70;;;;;;5044866;28;20815;-68
2022/03/27 08:16:58;;;;;;;23.07;15.60;;;27.40;33.10;;;;;;5057363;28;20530;-68
2022/03/27 08:19:24;;;;;;;18.10;16.20;;;27.40;32.90;;;;;;5063070;28;20431;-69
2022/03/27 08:21:49;;;;;;;18.30;16.27;;;27.30;32.90;;;;;;5059275;28;20464;-70
2022/03/27 08:24:15;;;;;;;19.47;15.50;;;25.80;34.30;;;;;;5064741;28;20262;-66
2022/03/27 08:26:56;;;;;;;17.73;15.60;;;26.10;33.90;;;;;;5060106;28;20189;-68
2022/03/27 08:29:30;;;;;;;19.80;16.13;;;26.60;33.80;;;;;;5057581;28;20286;-67
2022/03/27 08:31:58;;;;;;;18.50;16.47;;;27.60;32.90;;;;;;5063999;28;20519;-67
2022/03/27 08:34:24;;;;;;;18.83;15.10;;;28.10;32.00;;;;;;5039025;28;20469;-67
2022/03/27 08:36:50;;;;;;;18.10;15.80;;;28.50;31.50;;;;;;5054973;28;20429;-67
2022/03/27 08:39:16;;;;;;;22.60;16.90;;;25.50;33.30;;;;;;5058229;28;20206;-67
2022/03/27 08:41:49;;;;;;;21.90;16.07;;;25.70;33.60;;;;;;5050781;28;20197;-67
2022/03/27 08:44:18;;;;;;;20.03;16.70;;;25.60;34.90;;;;;;5060243;28;20186;-67
2022/03/27 08:46:45;;;;;;;17.77;15.97;;;25.70;33.90;;;;;;5037171;28;20438;-67
2022/03/27 08:49:19;;;;;;;19.07;16.70;;;26.40;33.70;;;;;;5041996;28;20477;-68
2022/03/27 08:52:08;;;;;;;17.70;15.33;;;26.70;33.20;;;;;;5044134;28;20462;-67
2022/03/27 08:54:42;;;;;;;19.93;17.00;;;27.20;32.70;;;;;;5052985;28;20458;-68
2022/03/27 08:57:37;;;;;;;19.60;17.63;;;27.40;32.40;;;;;;5056853;28;20440;-67
2022/03/27 09:00:04;;;;;;;18.80;16.80;;;27.30;32.50;;;;;;5022872;28;20440;-67
2022/03/27 09:02:30;;;;;;;19.03;15.90;;;26.80;32.70;;;;;;5053284;28;20542;-67
2022/03/27 09:04:57;;;;;;;18.00;15.80;;;26.40;33.10;;;;;;5055223;28;20537;-67
2022/03/27 09:07:28;;;;;;;18.40;16.50;;;26.10;33.90;;;;;;5055409;28;20197;-67
2022/03/27 09:09:55;;;;;;;19.87;15.33;;;25.80;35.10;;;;;;5053980;28;20443;-68
2022/03/27 09:12:21;;;;;;;17.70;15.80;;;24.70;35.20;;;;;;5054258;28;20522;-68
2022/03/27 09:14:48;;;;;;;16.80;15.00;;;24.40;36.20;;;;;;5054302;28;20437;-69
2022/03/27 09:17:14;;;;;;;20.23;15.67;;;23.30;36.70;;;;;;5044517;28;20450;-69
2022/03/27 09:19:43;;;;;;;17.20;13.90;;;22.30;38.60;;;;;;5061267;28;20443;-67
2022/03/27 09:22:16;;;;;;;15.70;13.50;;;23.30;39.00;;;;;;5063955;28;20454;-69
2022/03/27 09:24:46;;;;;;;17.87;15.07;;;23.80;37.80;;;;;;5037411;28;20517;-68
2022/03/27 09:27:12;;;;;;;20.00;15.07;;;22.50;38.90;;;;;;5040856;28;20442;-69
2022/03/27 09:29:59;;;;;;;18.60;14.43;;;22.10;39.00;;;;;;5058941;28;20868;-70
2022/03/27 09:32:35;;;;;;;17.77;14.13;;;21.50;40.20;;;;;;5060885;28;20467;-69
2022/03/27 09:35:11;;;;;;;17.87;14.37;;;22.30;40.60;;;;;;5056585;28;21427;-70
2022/03/27 09:37:38;;;;;;;17.53;14.03;;;22.50;38.90;;;;;;5042259;28;20438;-70
2022/03/27 09:40:09;;;;;;;15.50;12.73;;;22.20;40.30;;;;;;5054781;28;20798;-68
2022/03/27 09:42:39;;;;;;;17.23;13.60;;;21.50;40.90;;;;;;5062286;28;20452;-68
2022/03/27 09:45:14;;;;;;;17.07;14.00;;;22.50;40.50;;;;;;5065667;28;20434;-69
2022/03/27 09:47:42;;;;;;;18.57;16.20;;;22.70;39.70;;;;;;5063932;28;20468;-68
2022/03/27 09:50:09;;;;;;;18.23;13.93;;;23.80;39.30;;;;;;5055425;28;20448;-68
2022/03/27 09:52:35;;;;;;;20.37;14.43;;;24.80;38.10;;;;;;5057465;28;20473;-70
2022/03/27 09:55:07;;;;;;;19.40;13.60;;;24.90;37.50;;;;;;5058525;28;20804;-68
2022/03/27 09:57:40;;;;;;;17.40;15.00;;;26.20;35.70;;;;;;5058997;28;20433;-69
2022/03/27 10:00:20;;;;;;;16.20;12.87;;;27.10;34.60;;;;;;5042106;28;20810;-69
2022/03/27 10:02:47;;;;;;;14.93;13.40;;;26.70;35.30;;;;;;5051673;28;20492;-69
2022/03/27 10:05:17;;;;;;;17.50;12.60;;;28.20;33.10;;;;;;5053465;28;20942;-69
2022/03/27 10:07:45;;;;;;;14.93;13.27;;;28.80;32.30;;;;;;5048935;28;20534;-69
2022/03/27 10:10:17;;;;;;;14.00;11.90;;;28.40;32.30;;;;;;5059148;28;20442;-68
2022/03/27 10:12:47;;;;;;;16.13;12.97;;;28.70;32.30;;;;;;5056871;28;20946;-69
2022/03/27 10:15:15;;;;;;;18.93;13.20;;;27.60;32.80;;;;;;5055481;28;20783;-69
2022/03/27 10:17:46;;;;;;;19.53;13.53;;;28.40;32.70;;;;;;5058217;28;20434;-69
2022/03/27 10:20:13;;;;;;;13.13;11.73;;;27.30;32.20;;;;;;5049695;28;20526;-68
2022/03/27 10:22:45;;;;;;;15.13;13.23;;;27.90;33.20;;;;;;5056850;28;20540;-68
2022/03/27 10:25:12;;;;;;;15.77;12.07;;;26.80;33.40;;;;;;5060624;28;20445;-68
2022/03/27 10:27:40;;;;;;;14.43;12.57;;;27.20;33.90;;;;;;5060289;28;20446;-68
2022/03/27 10:30:08;;;;;;;18.17;12.53;;;26.90;33.90;;;;;;5057435;28;20439;-67
2022/03/27 10:32:35;;;;;;;18.50;14.73;;;26.30;34.20;;;;;;5062216;28;20504;-68
2022/03/27 10:35:19;;;;;;;17.53;13.83;;;25.20;34.90;;;;;;5056825;28;20443;-69
2022/03/27 10:38:01;;;;;;;12.77;11.47;;;25.30;36.20;;;;;;5059873;28;20510;-68
2022/03/27 10:40:40;;;;;;;15.80;13.07;;;25.60;35.50;;;;;;5061568;28;20558;-63
2022/03/27 10:43:16;;;;;;;12.77;10.93;;;25.20;36.00;;;;;;5052924;28;20470;-76
2022/03/27 10:45:42;;;;;;;14.40;12.87;;;25.00;36.40;;;;;;5052134;28;20434;-73
2022/03/27 10:48:13;;;;;;;17.30;12.40;;;25.00;36.70;;;;;;5044636;28;20542;-69
2022/03/27 10:50:50;;;;;;;16.03;12.63;;;25.10;36.60;;;;;;5034593;28;20257;-71
2022/03/27 10:53:16;;;;;;;14.83;12.50;;;24.70;36.70;;;;;;5039696;28;20474;-64
2022/03/27 10:55:44;;;;;;;16.17;12.60;;;25.40;36.30;;;;;;5051167;28;20485;-67
2022/03/27 10:58:30;;;;;;;18.03;12.60;;;25.60;35.70;;;;;;5052507;28;20526;-69
2022/03/27 11:00:58;;;;;;;13.30;11.53;;;24.70;36.60;;;;;;5053578;28;20442;-67
2022/03/27 11:03:51;;;;;;;13.97;11.63;;;24.40;37.10;;;;;;5054046;28;21029;-60
2022/03/27 11:06:28;;;;;;;19.37;13.33;;;24.80;37.00;;;;;;5054139;28;20441;-60
2022/03/27 11:08:57;;;;;;;14.27;12.00;;;25.40;36.60;;;;;;5060198;28;20458;-60
2022/03/27 11:11:38;;;;;;;13.47;11.10;;;25.60;36.10;;;;;;5061745;28;20506;-60
2022/03/27 11:14:05;;;;;;;14.77;12.17;;;25.80;36.00;;;;;;5054972;28;20475;-60
2022/03/27 11:16:30;;;;;;;15.43;13.07;;;25.40;35.40;;;;;;5059263;28;21034;-60
2022/03/27 11:18:56;;;;;;;15.80;12.97;;;26.10;35.50;;;;;;5054566;28;20443;-60
2022/03/27 11:21:27;;;;;;;18.40;13.10;;;25.80;34.90;;;;;;5057048;28;20463;-60
2022/03/27 11:24:19;;;;;;;15.47;12.67;;;25.90;35.60;;;;;;5052560;28;20190;-60
2022/03/27 11:26:45;;;;;;;14.27;12.40;;;26.30;34.60;;;;;;5045052;28;20473;-61
2022/03/27 11:29:10;;;;;;;18.37;13.00;;;26.40;34.50;;;;;;5060483;28;21011;-60
2022/03/27 11:31:38;;;;;;;17.60;13.43;;;26.60;34.30;;;;;;5054857;28;20356;-60
2022/03/27 11:34:12;;;;;;;16.30;13.07;;;25.70;34.10;;;;;;5056914;28;20281;-60
2022/03/27 11:37:09;;;;;;;18.10;13.20;;;25.40;35.40;;;;;;5062171;28;20955;-61
2022/03/27 11:39:36;;;;;;;16.90;13.37;;;25.10;36.30;;;;;;5052101;28;20443;-60
2022/03/27 11:42:32;;;;;;;18.80;12.30;;;25.60;34.80;;;;;;5062758;28;20552;-60
2022/03/27 11:45:16;;;;;;;15.47;12.07;;;25.70;34.80;;;;;;5062719;28;20444;-60
2022/03/27 11:47:51;;;;;;;13.70;11.73;;;25.40;34.70;;;;;;5054394;28;20440;-61
2022/03/27 11:50:34;;;;;;;13.03;11.63;;;25.60;34.70;;;;;;5055437;28;20442;-61
2022/03/27 11:53:02;;;;;;;14.03;12.03;;;25.90;34.00;;;;;;5060064;28;21027;-61
2022/03/27 11:55:30;;;;;;;18.17;11.83;;;25.50;33.60;;;;;;5063259;28;20496;-62
2022/03/27 11:57:57;;;;;;;15.30;11.40;;;25.70;33.80;;;;;;5055474;28;20447;-60
2022/03/27 12:00:31;;;;;;;15.60;11.93;;;25.60;33.50;;;;;;5055909;28;20738;-59
2022/03/27 12:02:57;;;;;;;16.23;11.80;;;25.30;33.80;;;;;;5054413;28;20542;-61
2022/03/27 12:05:34;;;;;;;17.63;13.67;;;24.70;34.10;;;;;;5056999;28;20449;-61
2022/03/27 12:08:01;;;;;;;13.70;10.90;;;24.40;35.10;;;;;;5053854;28;21056;-62
2022/03/27 12:10:26;;;;;;;16.03;11.10;;;24.40;34.40;;;;;;5058074;28;20440;-59
2022/03/27 12:13:08;;;;;;;14.97;12.40;;;24.30;34.70;;;;;;5059546;28;20477;-61
2022/03/27 12:15:52;;;;;;;16.30;11.00;;;24.50;34.00;;;;;;5060249;28;20194;-61
2022/03/27 12:18:29;;;;;;;13.93;9.90;;;24.20;33.80;;;;;;5043882;28;20530;-60
2022/03/27 12:20:55;;;;;;;12.83;9.47;;;23.60;34.30;;;;;;5051357;28;20447;-60
2022/03/27 12:23:51;;;;;;;11.07;9.37;;;23.50;34.80;;;;;;5070044;28;20871;-61
2022/03/27 12:32:08;;;;;;;15.90;10.30;;;22.70;34.50;;;;;;5060039;28;20576;-60
2022/03/27 12:34:43;;;;;;;14.47;9.03;;;22.20;35.00;;;;;;5058532;28;20570;-61
2022/03/27 12:37:15;;;;;;;11.43;9.20;;;22.10;34.80;;;;;;5065371;28;20453;-60
2022/03/27 12:39:50;;;;;;;12.70;9.10;;;22.20;35.10;;;;;;5056794;28;20444;-60
2022/03/27 12:42:29;;;;;;;11.30;9.43;;;22.30;35.70;;;;;;5056466;28;20470;-60
2022/03/27 12:44:59;;;;;;;13.17;9.40;;;22.50;35.30;;;;;;5055437;28;20426;-60
2022/03/27 12:47:37;;;;;;;12.23;8.70;;;22.50;34.20;;;;;;5040178;28;20961;-60
2022/03/27 12:50:05;;;;;;;16.60;9.70;;;22.50;34.30;;;;;;5053716;28;20451;-60